createdAt,value
2019-05-18T00:01:45.285Z,19.90
2019-05-18T00:04:14.045Z,19.75
2019-05-18T00:06:42.819Z,23.22
2019-05-18T00:09:11.945Z,20.60
2019-05-18T00:11:40.760Z,20.30
2019-05-18T00:14:09.588Z,22.62
2019-05-18T00:16:38.287Z,23.83
2019-05-18T00:19:07.059Z,22.30
2019-05-18T00:21:35.845Z,22.93
2019-05-18T00:24:04.614Z,21.73
2019-05-18T00:26:33.561Z,23.27
2019-05-18T00:29:02.360Z,21.60
2019-05-18T00:31:31.219Z,21.45
2019-05-18T00:33:59.954Z,22.45
2019-05-18T00:36:29.129Z,22.62
2019-05-18T00:38:57.943Z,25.68
2019-05-18T00:41:26.740Z,23.02
2019-05-18T00:43:55.607Z,23.50
2019-05-18T00:46:24.476Z,20.60
2019-05-18T00:48:53.378Z,23.73
2019-05-18T00:51:23.449Z,22.52
2019-05-18T00:53:52.307Z,21.62
2019-05-18T00:56:21.233Z,21.33
2019-05-18T00:58:50.139Z,23.02
2019-05-18T01:01:18.982Z,21.05
2019-05-18T01:03:47.702Z,27.77
2019-05-18T01:06:16.684Z,22.62
2019-05-18T01:08:45.527Z,20.80
2019-05-18T01:11:14.330Z,26.05
2019-05-18T01:13:43.207Z,21.97
2019-05-18T01:16:12.080Z,23.85
2019-05-18T01:18:40.810Z,19.87
2019-05-18T01:21:09.692Z,22.90
2019-05-18T01:23:38.601Z,24.18
2019-05-18T01:26:07.375Z,23.83
2019-05-18T01:28:36.143Z,27.80
2019-05-18T01:31:04.911Z,22.85
2019-05-18T01:33:33.782Z,22.67
2019-05-18T01:36:02.550Z,23.95
2019-05-18T01:38:31.457Z,26.37
2019-05-18T01:41:00.199Z,25.72
2019-05-18T01:43:28.990Z,21.73
2019-05-18T01:45:57.747Z,24.52
2019-05-18T01:48:26.460Z,23.85
2019-05-18T01:50:55.484Z,24.60
2019-05-18T01:53:24.225Z,24.40
2019-05-18T01:55:53.096Z,24.47
2019-05-18T01:58:21.853Z,26.80
2019-05-18T02:00:50.661Z,21.37
2019-05-18T02:03:19.449Z,23.95
2019-05-18T02:05:48.268Z,21.87
2019-05-18T02:08:16.977Z,29.42
2019-05-18T02:10:45.913Z,25.02
2019-05-18T02:13:14.843Z,24.63
2019-05-18T02:15:43.594Z,23.07
2019-05-18T02:18:12.426Z,27.82
2019-05-18T02:20:41.173Z,25.70
2019-05-18T02:23:09.916Z,24.00
2019-05-18T02:25:38.757Z,23.45
2019-05-18T02:28:07.582Z,27.32
2019-05-18T02:30:36.453Z,27.93
2019-05-18T02:33:05.218Z,26.07
2019-05-18T02:35:34.140Z,26.52
2019-05-18T02:38:16.174Z,25.50
2019-05-18T02:40:45.259Z,25.10
2019-05-18T02:43:14.070Z,26.25
2019-05-18T02:45:42.956Z,25.30
2019-05-18T02:48:11.713Z,25.55
2019-05-18T02:50:40.619Z,25.37
2019-05-18T02:53:09.447Z,23.20
2019-05-18T02:55:38.365Z,26.93
2019-05-18T02:58:07.284Z,22.95
2019-05-18T03:00:36.160Z,27.27
2019-05-18T03:03:05.004Z,26.40
2019-05-18T03:05:33.729Z,25.82
2019-05-18T03:08:02.506Z,24.43
2019-05-18T03:10:31.431Z,25.82
2019-05-18T03:13:00.250Z,24.90
2019-05-18T03:15:29.025Z,26.30
2019-05-18T03:17:57.919Z,28.32
2019-05-18T03:20:26.821Z,24.98
2019-05-18T03:22:55.557Z,27.73
2019-05-18T03:25:24.369Z,32.35
2019-05-18T03:27:53.132Z,26.05
2019-05-18T03:30:22.022Z,24.50
2019-05-18T03:32:50.849Z,26.82
2019-05-18T03:35:19.675Z,27.27
2019-05-18T03:37:48.433Z,28.90
2019-05-18T03:40:17.219Z,27.27
2019-05-18T03:42:45.966Z,35.52
2019-05-18T03:45:14.868Z,27.55
2019-05-18T03:47:43.675Z,26.20
2019-05-18T03:50:12.490Z,23.30
2019-05-18T03:52:41.451Z,31.42
2019-05-18T03:55:10.273Z,25.68
2019-05-18T03:57:39.194Z,27.65
2019-05-18T04:00:08.125Z,27.77
2019-05-18T04:02:37.077Z,28.50
2019-05-18T04:05:05.816Z,25.15
2019-05-18T04:07:34.696Z,28.92
2019-05-18T04:10:03.586Z,29.77
2019-05-18T04:12:32.495Z,28.92
2019-05-18T04:15:01.297Z,28.20
2019-05-18T04:17:30.180Z,28.32
2019-05-18T04:19:59.015Z,28.07
2019-05-18T04:22:28.034Z,28.55
2019-05-18T04:24:56.934Z,27.40
2019-05-18T04:27:27.004Z,25.12
2019-05-18T04:29:55.672Z,27.77
2019-05-18T04:32:24.451Z,27.65
2019-05-18T04:34:53.168Z,27.07
2019-05-18T04:37:22.041Z,26.97
2019-05-18T04:39:50.846Z,28.67
2019-05-18T04:42:19.589Z,27.27
2019-05-18T04:44:48.286Z,27.10
2019-05-18T04:47:17.131Z,25.62
2019-05-18T04:50:03.549Z,28.17
2019-05-18T04:52:16.363Z,28.55
2019-05-18T04:54:45.062Z,28.23
2019-05-18T04:57:13.844Z,26.85
2019-05-18T04:59:42.540Z,26.68
2019-05-18T05:02:11.397Z,26.52
2019-05-18T05:04:40.182Z,28.62
2019-05-18T05:07:08.868Z,29.67
2019-05-18T05:09:37.625Z,25.95
2019-05-18T05:12:06.384Z,25.75
2019-05-18T05:14:35.178Z,26.02
2019-05-18T05:17:04.011Z,26.87
2019-05-18T05:19:32.746Z,35.63
2019-05-18T05:22:01.429Z,27.98
2019-05-18T05:24:30.174Z,28.47
2019-05-18T05:26:58.888Z,33.10
2019-05-18T05:29:28.336Z,26.97
2019-05-18T05:31:57.051Z,27.22
2019-05-18T05:34:25.841Z,24.63
2019-05-18T05:36:54.591Z,26.68
2019-05-18T05:39:23.317Z,27.10
2019-05-18T05:41:52.059Z,26.33
2019-05-18T05:44:20.741Z,23.55
2019-05-18T05:46:49.466Z,29.32
2019-05-18T05:49:18.143Z,26.57
2019-05-18T05:51:46.985Z,28.25
2019-05-18T05:54:15.688Z,24.52
2019-05-18T05:56:44.424Z,25.90
2019-05-18T05:59:13.126Z,26.82
2019-05-18T06:01:42.213Z,23.73
2019-05-18T06:04:10.966Z,22.13
2019-05-18T06:06:39.679Z,26.70
2019-05-18T06:09:08.630Z,25.37
2019-05-18T06:11:37.359Z,26.65
2019-05-18T06:14:06.084Z,24.60
2019-05-18T06:16:34.803Z,24.07
2019-05-18T06:19:03.674Z,25.15
2019-05-18T06:21:32.563Z,23.42
2019-05-18T06:24:01.362Z,23.55
2019-05-18T06:26:30.540Z,23.27
2019-05-18T06:28:59.489Z,28.20
2019-05-18T06:31:28.206Z,25.72
2019-05-18T06:33:56.905Z,22.45
2019-05-18T06:36:25.606Z,24.10
2019-05-18T06:38:54.317Z,23.18
2019-05-18T06:41:23.193Z,25.75
2019-05-18T06:43:52.017Z,27.27
2019-05-18T06:46:20.827Z,22.17
2019-05-18T06:48:49.630Z,23.67
2019-05-18T06:51:18.389Z,22.13
2019-05-18T06:53:47.107Z,21.90
2019-05-18T06:56:15.814Z,21.77
2019-05-18T06:58:44.545Z,24.77
2019-05-18T07:01:13.398Z,22.67
2019-05-18T07:03:44.966Z,20.90
2019-05-18T07:06:12.670Z,20.32
2019-05-18T07:08:41.558Z,24.15
2019-05-18T07:11:10.431Z,22.35
2019-05-18T07:13:39.167Z,19.17
2019-05-18T07:16:07.885Z,19.92
2019-05-18T07:18:36.677Z,19.17
2019-05-18T07:21:05.369Z,19.67
2019-05-18T07:23:34.258Z,18.42
2019-05-18T07:26:03.241Z,18.25
2019-05-18T07:28:31.990Z,19.80
2019-05-18T07:31:00.735Z,22.98
2019-05-18T07:33:38.067Z,21.02
2019-05-18T07:36:09.535Z,22.05
2019-05-18T07:38:38.398Z,19.48
2019-05-18T07:41:07.145Z,19.52
2019-05-18T07:43:35.893Z,18.10
2019-05-18T07:46:04.621Z,18.12
2019-05-18T07:48:33.353Z,19.48
2019-05-18T07:51:04.259Z,17.82
2019-05-18T07:53:33.005Z,15.75
2019-05-18T07:56:01.782Z,15.72
2019-05-18T07:58:30.574Z,17.45
2019-05-18T08:00:59.550Z,131.72
2019-05-18T08:03:28.243Z,15.40
2019-05-18T08:05:56.966Z,16.00
2019-05-18T08:08:25.785Z,14.80
2019-05-18T08:10:54.539Z,16.70
2019-05-18T08:13:23.313Z,16.42
2019-05-18T08:15:52.099Z,16.50
2019-05-18T08:18:20.928Z,14.65
2019-05-18T08:20:49.684Z,15.50
2019-05-18T08:23:19.367Z,17.45
2019-05-18T08:25:48.093Z,14.87
2019-05-18T08:30:18.771Z,15.40
2019-05-18T08:31:08.024Z,15.83
2019-05-18T08:33:36.799Z,15.03
2019-05-18T08:36:25.194Z,35.20
2019-05-18T08:38:53.905Z,14.05
2019-05-18T08:41:43.252Z,12.85
2019-05-18T08:44:12.083Z,12.85
2019-05-18T08:46:40.786Z,12.30
2019-05-18T08:49:09.528Z,15.30
2019-05-18T08:51:38.269Z,12.33
2019-05-18T08:54:07.155Z,11.43
2019-05-18T08:56:35.845Z,14.38
2019-05-18T08:59:05.012Z,10.23
2019-05-18T09:01:33.810Z,11.18
2019-05-18T09:04:02.555Z,10.78
2019-05-18T09:06:31.320Z,12.20
2019-05-18T09:09:00.081Z,11.35
2019-05-18T09:11:28.881Z,13.50
2019-05-18T09:13:57.678Z,10.55
2019-05-18T09:16:26.431Z,12.10
2019-05-18T09:18:55.125Z,10.45
2019-05-18T09:21:23.961Z,14.50
2019-05-18T09:23:52.676Z,10.50
2019-05-18T09:26:21.386Z,9.18
2019-05-18T09:28:50.119Z,8.40
2019-05-18T09:31:18.807Z,9.53
2019-05-18T09:33:47.685Z,8.58
2019-05-18T09:36:16.525Z,9.13
2019-05-18T09:38:45.673Z,9.55
2019-05-18T09:41:14.416Z,8.75
2019-05-18T09:43:43.179Z,12.73
2019-05-18T09:46:11.905Z,12.07
2019-05-18T09:48:40.809Z,13.80
2019-05-18T09:51:09.520Z,10.25
2019-05-18T09:53:50.694Z,8.70
2019-05-18T09:56:08.810Z,12.30
2019-05-18T09:58:37.618Z,9.95
2019-05-18T10:01:06.371Z,7.83
2019-05-18T10:03:35.053Z,10.68
2019-05-18T10:06:03.786Z,9.63
2019-05-18T10:08:34.179Z,8.65
2019-05-18T10:11:02.955Z,11.65
2019-05-18T10:13:31.672Z,9.73
2019-05-18T10:16:00.524Z,10.05
2019-05-18T10:18:29.279Z,13.30
2019-05-18T10:20:57.986Z,9.40
2019-05-18T10:23:26.782Z,10.88
2019-05-18T10:25:55.459Z,10.40
2019-05-18T10:28:24.230Z,18.32
2019-05-18T10:30:53.022Z,8.58
2019-05-18T10:33:21.754Z,8.23
2019-05-18T10:35:54.925Z,7.22
2019-05-18T10:38:20.955Z,7.45
2019-05-18T10:40:49.764Z,10.65
2019-05-18T10:43:18.508Z,9.45
2019-05-18T10:45:47.313Z,10.82
2019-05-18T10:48:16.024Z,10.50
2019-05-18T10:50:44.876Z,13.22
2019-05-18T10:53:27.898Z,9.48
2019-05-18T10:55:44.297Z,10.95
2019-05-18T10:58:13.092Z,10.98
2019-05-18T11:00:41.901Z,12.45
2019-05-18T11:03:10.652Z,11.20
2019-05-18T11:05:39.433Z,10.38
2019-05-18T11:08:08.159Z,9.25
2019-05-18T11:10:36.911Z,9.85
2019-05-18T11:13:05.762Z,12.33
2019-05-18T11:15:34.492Z,9.33
2019-05-18T11:18:03.662Z,9.18
2019-05-18T11:20:33.051Z,9.38
2019-05-18T11:23:06.703Z,8.40
2019-05-18T11:25:36.502Z,8.15
2019-05-18T11:28:06.958Z,8.23
2019-05-18T11:30:41.504Z,8.58
2019-05-18T11:33:10.919Z,12.47
2019-05-18T11:35:40.542Z,7.70
2019-05-18T11:38:10.442Z,9.78
2019-05-18T11:40:39.135Z,8.45
2019-05-18T11:43:08.245Z,7.30
2019-05-18T11:45:37.015Z,7.40
2019-05-18T11:48:05.730Z,9.65
2019-05-18T11:50:34.441Z,9.00
2019-05-18T11:53:03.514Z,9.30
2019-05-18T11:55:32.246Z,8.70
2019-05-18T11:58:01.327Z,8.85
2019-05-18T12:00:30.134Z,8.18
2019-05-18T12:02:58.893Z,7.62
2019-05-18T12:05:27.676Z,7.50
2019-05-18T12:07:56.373Z,8.38
2019-05-18T12:10:25.226Z,7.70
2019-05-18T12:12:53.957Z,6.45
2019-05-18T12:15:22.799Z,8.63
2019-05-18T12:17:51.576Z,6.05
2019-05-18T12:20:20.374Z,6.25
2019-05-18T12:22:49.127Z,5.15
2019-05-18T12:25:17.978Z,7.03
2019-05-18T12:27:46.761Z,5.05
2019-05-18T12:30:15.557Z,6.22
2019-05-18T12:32:44.296Z,6.78
2019-05-18T12:35:33.258Z,6.53
2019-05-18T12:38:01.948Z,4.05
2019-05-18T12:40:30.714Z,5.37
2019-05-18T12:43:04.774Z,9.28
2019-05-18T12:45:33.671Z,4.03
2019-05-18T12:48:04.287Z,3.15
2019-05-18T12:57:12.297Z,4.08
2019-05-18T13:00:17.553Z,2.70
2019-05-18T13:02:33.643Z,4.85
2019-05-18T13:05:02.340Z,4.90
2019-05-18T13:07:47.304Z,3.98
2019-05-18T13:10:35.731Z,3.22
2019-05-18T13:13:09.616Z,3.20
2019-05-18T13:16:01.956Z,3.77
2019-05-18T13:18:49.149Z,5.05
2019-05-18T13:21:17.885Z,2.27
2019-05-18T13:23:47.651Z,3.10
2019-05-18T13:26:51.627Z,3.40
2019-05-18T13:29:41.230Z,2.90
2019-05-18T13:32:22.595Z,5.22
2019-05-18T13:34:56.334Z,4.10
2019-05-18T13:37:27.786Z,4.53
2019-05-18T13:39:56.499Z,3.08
2019-05-18T13:42:25.205Z,5.80
2019-05-18T13:44:53.918Z,4.22
2019-05-18T13:47:22.624Z,3.45
2019-05-18T13:49:51.434Z,4.10
2019-05-18T13:52:20.176Z,4.87
2019-05-18T13:55:02.884Z,6.08
2019-05-18T13:57:19.824Z,3.50
2019-05-18T13:59:48.576Z,3.05
2019-05-18T14:02:17.340Z,3.90
2019-05-18T14:04:46.105Z,2.33
2019-05-18T14:07:14.976Z,8.65
2019-05-18T14:09:43.746Z,5.62
2019-05-18T14:12:12.577Z,5.28
2019-05-18T14:14:41.326Z,3.08
2019-05-18T14:17:10.084Z,3.12
2019-05-18T14:19:38.907Z,4.58
2019-05-18T14:22:07.721Z,2.67
2019-05-18T14:24:36.467Z,2.83
2019-05-18T14:27:05.217Z,2.55
2019-05-18T14:29:34.047Z,3.08
2019-05-18T14:32:02.862Z,3.10
2019-05-18T14:34:31.552Z,4.67
2019-05-18T14:37:00.329Z,3.65
2019-05-18T14:39:29.091Z,2.80
2019-05-18T14:41:57.825Z,3.05
2019-05-18T14:44:26.569Z,2.87
2019-05-18T14:46:55.339Z,4.90
2019-05-18T14:49:24.082Z,2.85
2019-05-18T14:51:52.894Z,3.58
2019-05-18T14:54:25.282Z,4.80
2019-05-18T14:56:52.075Z,2.52
2019-05-18T14:59:20.833Z,2.90
2019-05-18T15:01:49.688Z,3.02
2019-05-18T15:04:18.486Z,4.70
2019-05-18T15:06:47.308Z,3.85
2019-05-18T15:09:16.085Z,3.08
2019-05-18T15:11:44.767Z,4.35
2019-05-18T15:14:13.539Z,3.90
2019-05-18T15:16:42.315Z,5.50
2019-05-18T15:19:11.210Z,5.05
2019-05-18T15:21:40.047Z,3.58
2019-05-18T15:24:08.971Z,4.72
2019-05-18T15:26:37.686Z,3.00
2019-05-18T15:29:06.422Z,4.12
2019-05-18T15:31:35.152Z,2.62
2019-05-18T15:34:04.010Z,3.35
2019-05-18T15:36:32.798Z,3.45
2019-05-18T15:39:01.578Z,2.90
2019-05-18T15:41:30.460Z,2.98
2019-05-18T15:43:59.223Z,4.28
2019-05-18T15:46:27.983Z,5.83
2019-05-18T15:48:56.803Z,7.37
2019-05-18T15:51:25.577Z,3.40
2019-05-18T15:53:54.435Z,3.10
2019-05-18T15:56:23.151Z,3.12
2019-05-18T15:58:51.999Z,3.00
2019-05-18T16:01:20.720Z,3.55
2019-05-18T16:03:49.623Z,3.65
2019-05-18T16:06:18.384Z,3.17
2019-05-18T16:08:47.103Z,6.37
2019-05-18T16:11:15.907Z,4.28
2019-05-18T16:13:44.756Z,4.28
2019-05-18T16:16:13.625Z,6.45
2019-05-18T16:18:42.415Z,3.30
2019-05-18T16:21:11.463Z,3.00
2019-05-18T16:23:40.189Z,4.12
2019-05-18T16:26:20.667Z,3.55
2019-05-18T16:28:39.657Z,4.50
2019-05-18T16:31:08.641Z,5.50
2019-05-18T16:33:37.447Z,3.35
2019-05-18T16:36:06.408Z,4.83
2019-05-18T16:38:35.265Z,3.83
2019-05-18T16:41:04.363Z,4.15
2019-05-18T16:43:36.435Z,2.90
2019-05-18T16:46:05.316Z,3.30
2019-05-18T16:48:34.179Z,2.92
2019-05-18T16:51:03.030Z,6.42
2019-05-18T16:54:05.522Z,2.60
2019-05-18T16:57:16.053Z,2.72
2019-05-18T17:00:35.959Z,4.50
2019-05-18T17:03:05.154Z,6.83
2019-05-18T17:05:34.170Z,2.67
2019-05-18T17:08:02.945Z,3.27
2019-05-18T17:10:32.025Z,4.45
2019-05-18T17:13:00.951Z,3.40
2019-05-18T17:15:30.814Z,4.92
2019-05-18T17:17:59.737Z,4.17
2019-05-18T17:20:28.592Z,3.40
2019-05-18T17:22:57.399Z,4.70
2019-05-18T17:25:26.277Z,4.50
2019-05-18T17:27:55.524Z,7.15
2019-05-18T17:30:24.402Z,4.47
2019-05-18T17:32:53.252Z,4.60
2019-05-18T17:35:22.321Z,2.85
2019-05-18T17:37:51.232Z,4.15
2019-05-18T17:40:20.085Z,6.80
2019-05-18T17:42:49.130Z,6.28
2019-05-18T17:45:18.072Z,10.23
2019-05-18T17:47:47.219Z,4.65
2019-05-18T17:50:17.156Z,5.45
2019-05-18T17:52:45.992Z,5.37
2019-05-18T17:55:16.441Z,4.60
2019-05-18T17:57:48.863Z,4.55
2019-05-18T18:00:17.629Z,5.08
2019-05-18T18:03:05.998Z,4.80
2019-05-18T18:05:35.231Z,4.55
2019-05-18T18:08:04.324Z,6.72
2019-05-18T18:10:33.388Z,3.87
2019-05-18T18:13:09.507Z,4.15
2019-05-18T18:15:39.012Z,5.28
2019-05-18T18:18:07.931Z,4.20
2019-05-18T18:20:37.031Z,8.18
2019-05-18T18:23:05.927Z,5.97
2019-05-18T18:25:35.089Z,4.08
2019-05-18T18:28:05.216Z,8.58
2019-05-18T18:30:34.124Z,5.12
2019-05-18T18:33:02.894Z,5.15
2019-05-18T18:35:31.936Z,4.97
2019-05-18T18:38:00.802Z,4.97
2019-05-18T18:40:32.601Z,5.78
2019-05-18T18:43:03.179Z,4.78
2019-05-18T18:45:36.947Z,5.20
2019-05-18T18:48:05.966Z,8.20
2019-05-18T18:50:35.313Z,6.22
2019-05-18T18:53:04.740Z,4.20
2019-05-18T18:55:34.067Z,7.72
2019-05-18T18:58:05.599Z,6.78
2019-05-18T19:00:34.763Z,8.03
2019-05-18T19:03:05.476Z,8.98
2019-05-18T19:05:34.376Z,5.20
2019-05-18T19:08:06.194Z,6.33
2019-05-18T19:10:35.463Z,6.87
2019-05-18T19:13:06.481Z,8.23
2019-05-18T19:15:35.874Z,8.83
2019-05-18T19:18:04.734Z,5.17
2019-05-18T19:20:33.623Z,7.83
2019-05-18T19:23:02.692Z,7.40
2019-05-18T19:25:31.655Z,7.55
2019-05-18T19:28:00.610Z,5.62
2019-05-18T19:30:32.515Z,14.10
2019-05-18T19:33:04.360Z,6.22
2019-05-18T19:35:33.869Z,6.42
2019-05-18T19:38:04.130Z,5.62
2019-05-18T19:40:33.376Z,5.75
2019-05-18T19:43:02.720Z,8.68
2019-05-18T19:45:31.580Z,6.05
2019-05-18T19:48:00.932Z,6.65
2019-05-18T19:50:29.769Z,7.45
2019-05-18T19:52:58.855Z,8.43
2019-05-18T19:55:27.748Z,5.83
2019-05-18T19:58:08.106Z,7.15
2019-05-18T20:00:27.795Z,11.78
2019-05-18T20:03:02.732Z,8.95
2019-05-18T20:05:31.689Z,7.33
2019-05-18T20:08:02.507Z,6.20
2019-05-18T20:10:31.348Z,6.95
2019-05-18T20:13:03.508Z,6.37
2019-05-18T20:15:32.338Z,6.85
2019-05-18T20:18:01.268Z,15.43
2019-05-18T20:20:30.228Z,8.15
2019-05-18T20:22:59.057Z,7.00
2019-05-18T20:25:27.867Z,8.78
2019-05-18T20:27:56.878Z,8.53
2019-05-18T20:30:25.943Z,7.97
2019-05-18T20:32:54.871Z,9.53
2019-05-18T20:35:25.755Z,9.30
2019-05-18T20:37:54.512Z,9.58
2019-05-18T20:40:23.524Z,9.90
2019-05-18T20:42:52.362Z,8.20
2019-05-18T20:45:21.377Z,7.33
2019-05-18T20:47:50.556Z,8.75
2019-05-18T20:50:19.416Z,8.48
2019-05-18T20:52:48.389Z,10.43
2019-05-18T20:55:17.532Z,8.00
2019-05-18T20:57:46.505Z,9.83
2019-05-18T21:00:15.488Z,19.35
2019-05-18T21:02:44.469Z,11.30
2019-05-18T21:05:13.531Z,33.00
2019-05-18T21:07:45.402Z,15.08
2019-05-18T21:10:14.252Z,14.55
2019-05-18T21:12:42.961Z,10.58
2019-05-18T21:15:11.830Z,8.90
2019-05-18T21:17:40.680Z,9.68
2019-05-18T21:20:10.143Z,9.30
2019-05-18T21:22:38.888Z,10.72
2019-05-18T21:25:07.786Z,13.00
2019-05-18T21:27:36.671Z,47.53
2019-05-18T21:30:05.716Z,10.53
2019-05-18T21:32:34.495Z,9.80
2019-05-18T21:35:03.416Z,9.48
2019-05-18T21:37:32.262Z,14.07
2019-05-18T21:40:01.183Z,10.58
2019-05-18T21:42:30.262Z,10.15
2019-05-18T21:44:59.051Z,11.90
2019-05-18T21:47:28.117Z,10.13
2019-05-18T21:49:56.971Z,10.03
2019-05-18T21:52:25.773Z,10.55
2019-05-18T21:54:54.795Z,10.88
2019-05-18T21:57:23.759Z,12.03
2019-05-18T21:59:53.569Z,13.03
2019-05-18T22:02:27.301Z,11.10
2019-05-18T22:04:56.280Z,11.97
2019-05-18T22:07:26.139Z,14.58
2019-05-18T22:09:55.382Z,12.95
2019-05-18T22:12:27.304Z,11.70
2019-05-18T22:14:56.332Z,11.80
2019-05-18T22:17:25.473Z,11.05
2019-05-18T22:19:54.789Z,11.15
2019-05-18T22:22:24.935Z,13.18
2019-05-18T22:24:54.541Z,12.05
2019-05-18T22:27:24.058Z,14.13
2019-05-18T22:29:53.085Z,13.08
2019-05-18T22:32:21.819Z,13.90
2019-05-18T22:34:50.549Z,13.08
2019-05-18T22:37:19.344Z,13.32
2019-05-18T22:39:48.090Z,13.85
2019-05-18T22:42:16.857Z,13.30
2019-05-18T22:44:45.701Z,12.80
2019-05-18T22:47:14.565Z,13.58
2019-05-18T22:49:43.309Z,12.60
2019-05-18T22:52:12.062Z,14.78
2019-05-18T22:54:40.884Z,13.58
2019-05-18T22:57:09.684Z,13.95
2019-05-18T22:59:38.388Z,13.75
2019-05-18T23:02:07.104Z,13.25
2019-05-18T23:04:36.048Z,14.25
2019-05-18T23:07:05.124Z,14.70
2019-05-18T23:09:33.844Z,15.88
2019-05-18T23:12:02.764Z,14.45
2019-05-18T23:14:31.561Z,13.70
2019-05-18T23:17:00.387Z,20.43
2019-05-18T23:19:29.135Z,18.87
2019-05-18T23:21:57.847Z,18.50
2019-05-18T23:24:26.573Z,17.37
2019-05-18T23:26:55.337Z,19.32
2019-05-18T23:29:24.169Z,17.55
2019-05-18T23:31:53.743Z,17.12
2019-05-18T23:34:22.482Z,17.65
2019-05-18T23:36:51.182Z,17.07
2019-05-18T23:39:20.026Z,15.63
2019-05-18T23:41:48.754Z,16.97
2019-05-18T23:44:17.511Z,16.95
2019-05-18T23:46:46.389Z,17.20
2019-05-18T23:49:15.155Z,15.65
2019-05-18T23:51:43.888Z,17.12
2019-05-18T23:54:12.914Z,17.73
2019-05-18T23:56:41.622Z,19.23
2019-05-18T23:59:10.423Z,17.82
